createdAt,value
2022-12-19T00:00:36.963Z,12.30
2022-12-19T00:03:05.329Z,15.87
2022-12-19T00:05:38.004Z,13.73
2022-12-19T00:08:17.040Z,13.47
2022-12-19T00:10:45.796Z,14.60
2022-12-19T00:13:15.933Z,14.83
2022-12-19T00:15:45.335Z,14.37
2022-12-19T00:18:13.257Z,16.17
2022-12-19T00:20:41.190Z,14.30
2022-12-19T00:23:09.538Z,13.30
2022-12-19T00:25:37.455Z,19.40
2022-12-19T00:28:08.053Z,14.60
2022-12-19T00:30:36.127Z,14.93
2022-12-19T00:33:05.562Z,13.50
2022-12-19T00:35:33.538Z,14.80
2022-12-19T00:38:02.736Z,17.23
2022-12-19T00:40:30.692Z,14.30
2022-12-19T00:42:58.661Z,15.73
2022-12-19T00:45:28.781Z,17.53
2022-12-19T00:47:58.280Z,15.47
2022-12-19T00:50:27.624Z,17.10
2022-12-19T00:52:55.697Z,16.63
2022-12-19T00:55:23.693Z,15.97
2022-12-19T00:57:51.943Z,17.83
2022-12-19T01:00:23.905Z,16.77
2022-12-19T01:02:52.037Z,15.37
2022-12-19T01:05:20.169Z,16.47
2022-12-19T01:07:49.899Z,20.70
2022-12-19T01:10:17.984Z,18.93
2022-12-19T01:12:47.929Z,15.00
2022-12-19T01:15:18.474Z,17.47
2022-12-19T01:17:46.608Z,20.33
2022-12-19T01:20:16.807Z,16.60
2022-12-19T01:22:48.287Z,19.47
2022-12-19T01:25:18.717Z,16.03
2022-12-19T01:27:46.730Z,16.50
2022-12-19T01:30:15.080Z,16.83
2022-12-19T01:32:43.431Z,19.37
2022-12-19T01:35:21.098Z,15.67
2022-12-19T01:37:50.229Z,16.37
2022-12-19T01:40:19.962Z,19.47
2022-12-19T01:42:48.825Z,17.27
2022-12-19T01:45:37.403Z,16.10
2022-12-19T01:48:17.648Z,19.30
2022-12-19T01:51:00.803Z,17.30
2022-12-19T01:53:34.482Z,19.40
2022-12-19T01:56:09.009Z,18.03
2022-12-19T01:58:39.231Z,14.33
2022-12-19T02:01:08.995Z,23.40
2022-12-19T02:03:39.507Z,19.30
2022-12-19T02:06:10.086Z,19.73
2022-12-19T02:08:39.289Z,25.70
2022-12-19T02:11:08.688Z,19.37
2022-12-19T02:13:36.925Z,19.50
2022-12-19T02:16:15.682Z,18.57
2022-12-19T02:18:51.891Z,16.13
2022-12-19T02:21:28.286Z,20.10
2022-12-19T02:24:27.246Z,21.83
2022-12-19T02:27:07.455Z,18.97
2022-12-19T02:30:03.988Z,18.87
2022-12-19T02:32:38.793Z,21.07
2022-12-19T02:35:13.432Z,18.97
2022-12-19T02:37:49.460Z,18.93
2022-12-19T02:40:26.755Z,16.10
2022-12-19T02:42:59.727Z,15.23
2022-12-19T02:45:33.054Z,19.80
2022-12-19T02:48:08.591Z,17.03
2022-12-19T02:50:39.373Z,15.67
2022-12-19T02:53:08.057Z,16.47
2022-12-19T02:55:43.522Z,18.37
2022-12-19T02:58:31.753Z,17.23
2022-12-19T03:01:10.372Z,17.73
2022-12-19T03:03:48.565Z,17.60
2022-12-19T03:06:25.900Z,20.03
2022-12-19T03:09:01.130Z,18.37
2022-12-19T03:11:33.802Z,21.70
2022-12-19T03:14:05.687Z,18.37
2022-12-19T03:16:36.600Z,18.07
2022-12-19T03:19:09.795Z,20.73
2022-12-19T03:21:40.731Z,19.40
2022-12-19T03:24:10.479Z,18.90
2022-12-19T03:26:43.128Z,17.67
2022-12-19T03:29:16.588Z,19.20
2022-12-19T03:31:47.242Z,18.27
2022-12-19T03:34:20.146Z,18.77
2022-12-19T03:36:53.014Z,17.90
2022-12-19T03:39:23.005Z,18.50
2022-12-19T03:42:10.208Z,19.97
2022-12-19T03:44:43.318Z,17.53
2022-12-19T03:47:16.909Z,14.87
2022-12-19T03:49:47.172Z,18.87
2022-12-19T03:52:25.498Z,19.23
2022-12-19T03:55:01.939Z,16.50
2022-12-19T03:57:36.030Z,20.67
2022-12-19T04:00:07.063Z,18.67
2022-12-19T04:02:38.420Z,19.70
2022-12-19T04:05:10.358Z,17.83
2022-12-19T04:07:47.744Z,20.53
2022-12-19T04:10:19.562Z,20.70
2022-12-19T04:12:53.466Z,17.07
2022-12-19T04:15:29.225Z,20.53
2022-12-19T04:17:59.310Z,17.13
2022-12-19T04:20:31.284Z,17.10
2022-12-19T04:23:04.692Z,20.40
2022-12-19T04:25:36.202Z,19.33
2022-12-19T04:28:13.518Z,18.77
2022-12-19T04:30:43.977Z,17.37
2022-12-19T04:33:18.344Z,19.73
2022-12-19T04:35:47.843Z,24.90
2022-12-19T04:38:18.922Z,21.80
2022-12-19T04:40:46.962Z,19.27
2022-12-19T04:43:25.133Z,18.60
2022-12-19T04:45:57.382Z,19.83
2022-12-19T04:48:26.090Z,17.77
2022-12-19T04:50:56.636Z,20.27
2022-12-19T04:53:26.213Z,21.50
2022-12-19T04:56:02.148Z,21.37
2022-12-19T04:58:30.125Z,20.13
2022-12-19T05:01:07.971Z,21.47
2022-12-19T05:03:37.159Z,21.10
2022-12-19T05:06:10.746Z,21.10
2022-12-19T05:08:40.579Z,18.27
2022-12-19T05:11:15.933Z,19.50
2022-12-19T05:13:53.442Z,21.07
2022-12-19T05:16:21.682Z,22.80
2022-12-19T05:18:52.663Z,19.53
2022-12-19T05:21:22.722Z,21.07
2022-12-19T05:23:55.526Z,21.57
2022-12-19T05:26:24.059Z,18.27
2022-12-19T05:28:52.065Z,21.63
2022-12-19T05:31:21.950Z,18.27
2022-12-19T05:33:50.717Z,21.43
2022-12-19T05:36:32.340Z,20.57
2022-12-19T05:39:05.552Z,19.17
2022-12-19T05:41:33.594Z,24.07
2022-12-19T05:44:06.512Z,19.30
2022-12-19T05:46:34.819Z,17.60
2022-12-19T05:49:10.548Z,17.90
2022-12-19T05:51:44.362Z,21.87
2022-12-19T05:54:14.903Z,18.37
2022-12-19T05:56:43.334Z,20.47
2022-12-19T05:59:13.379Z,14.90
2022-12-19T06:01:42.262Z,20.87
2022-12-19T06:04:13.419Z,17.27
2022-12-19T06:06:43.094Z,22.00
2022-12-19T06:09:15.847Z,17.83
2022-12-19T06:11:44.003Z,16.70
2022-12-19T06:14:22.229Z,18.47
2022-12-19T06:16:51.214Z,18.10
2022-12-19T06:19:22.342Z,17.50
2022-12-19T06:21:51.868Z,14.93
2022-12-19T06:24:26.032Z,17.40
2022-12-19T06:26:54.160Z,20.10
2022-12-19T06:29:28.288Z,20.00
2022-12-19T06:31:56.780Z,19.03
2022-12-19T06:34:55.217Z,21.27
2022-12-19T06:37:16.177Z,17.60
2022-12-19T06:39:45.826Z,20.73
2022-12-19T06:42:24.783Z,14.83
2022-12-19T06:44:54.140Z,17.67
2022-12-19T06:47:23.386Z,18.43
2022-12-19T06:50:12.168Z,18.63
2022-12-19T06:52:45.191Z,23.50
2022-12-19T06:55:15.288Z,17.93
2022-12-19T06:57:46.099Z,21.33
2022-12-19T07:00:15.001Z,19.03
2022-12-19T07:02:46.684Z,18.03
2022-12-19T07:05:17.778Z,17.43
2022-12-19T07:07:47.199Z,26.57
2022-12-19T07:10:15.741Z,19.10
2022-12-19T07:12:43.840Z,18.70
2022-12-19T07:15:13.267Z,17.63
2022-12-19T07:17:43.607Z,20.60
2022-12-19T07:20:13.156Z,21.20
2022-12-19T07:22:45.727Z,16.43
2022-12-19T07:25:17.631Z,22.60
2022-12-19T07:27:47.764Z,16.90
2022-12-19T07:30:15.774Z,17.33
2022-12-19T07:32:43.791Z,19.17
2022-12-19T07:35:12.660Z,16.07
2022-12-19T07:37:41.027Z,18.93
2022-12-19T07:40:10.902Z,18.93
2022-12-19T07:42:40.277Z,18.17
2022-12-19T07:45:09.148Z,16.17
2022-12-19T07:47:37.133Z,18.60
2022-12-19T07:50:05.898Z,15.77
2022-12-19T07:52:38.189Z,19.87
2022-12-19T07:55:06.936Z,18.90
2022-12-19T07:57:38.156Z,19.67
2022-12-19T08:00:09.125Z,19.87
2022-12-19T08:02:41.394Z,19.57
2022-12-19T08:05:10.359Z,21.07
2022-12-19T08:07:38.373Z,22.33
2022-12-19T08:10:07.838Z,15.90
2022-12-19T08:12:35.883Z,19.47
2022-12-19T08:15:09.597Z,17.30
2022-12-19T08:17:49.503Z,17.80
2022-12-19T08:20:17.797Z,21.57
2022-12-19T08:22:51.838Z,17.80
2022-12-19T08:25:19.823Z,17.80
2022-12-19T08:27:51.435Z,17.70
2022-12-19T08:30:19.890Z,20.10
2022-12-19T08:32:53.732Z,17.70
2022-12-19T08:35:22.904Z,16.23
2022-12-19T08:37:56.063Z,15.87
2022-12-19T08:40:24.562Z,18.07
2022-12-19T08:42:56.611Z,18.03
2022-12-19T08:45:25.155Z,21.20
2022-12-19T08:48:01.663Z,22.03
2022-12-19T08:50:29.802Z,19.20
2022-12-19T08:53:01.274Z,16.80
2022-12-19T08:55:29.768Z,16.80
2022-12-19T08:57:59.271Z,18.73
2022-12-19T09:00:29.557Z,16.67
2022-12-19T09:03:04.408Z,17.57
2022-12-19T09:05:59.365Z,14.87
2022-12-19T09:08:26.485Z,17.57
2022-12-19T09:10:59.738Z,16.10
2022-12-19T09:13:28.692Z,14.93
2022-12-19T09:32:06.614Z,14.77
2022-12-19T09:34:37.365Z,15.23
2022-12-19T09:37:16.710Z,14.40
2022-12-19T09:39:47.932Z,15.43
2022-12-19T09:42:50.953Z,14.53
2022-12-19T09:45:42.180Z,13.43
2022-12-19T09:48:23.946Z,15.30
2022-12-19T09:51:10.668Z,14.03
2022-12-19T09:53:54.453Z,13.57
2022-12-19T09:56:29.887Z,12.77
2022-12-19T09:59:26.201Z,14.17
2022-12-19T10:02:13.230Z,14.73
2022-12-19T10:04:52.138Z,14.77
2022-12-19T10:07:54.768Z,14.07
2022-12-19T10:12:36.355Z,13.20
2022-12-19T10:13:27.747Z,12.67
2022-12-19T10:16:05.126Z,12.47
2022-12-19T10:18:56.500Z,13.27
2022-12-19T10:22:16.402Z,12.80
2022-12-19T10:25:12.841Z,12.50
2022-12-19T10:27:58.808Z,12.27
2022-12-19T10:30:38.832Z,11.73
2022-12-19T10:33:21.099Z,12.17
2022-12-19T10:36:02.035Z,11.80
2022-12-19T10:38:47.343Z,11.23
2022-12-19T10:41:39.273Z,11.83
2022-12-19T10:44:19.812Z,11.10
2022-12-19T10:46:50.406Z,12.20
2022-12-19T10:49:22.411Z,12.57
2022-12-19T10:52:09.245Z,13.67
2022-12-19T10:54:43.955Z,11.83
2022-12-19T10:57:26.433Z,11.60
2022-12-19T11:00:04.042Z,13.33
2022-12-19T11:02:45.617Z,12.87
2022-12-19T11:05:31.087Z,12.63
2022-12-19T11:08:16.678Z,12.83
2022-12-19T11:12:26.331Z,13.27
2022-12-19T11:20:12.363Z,12.40
2022-12-19T11:24:27.994Z,13.27
2022-12-19T11:29:16.740Z,15.67
2022-12-19T11:30:08.652Z,13.17
2022-12-19T11:30:39.347Z,13.67
2022-12-19T11:30:45.425Z,12.27
2022-12-19T11:34:07.261Z,13.37
2022-12-19T11:36:42.503Z,14.10
2022-12-19T11:39:17.095Z,13.20
2022-12-19T11:41:53.898Z,13.70
2022-12-19T11:44:30.543Z,15.77
2022-12-19T11:47:07.602Z,13.93
2022-12-19T11:49:41.805Z,14.43
2022-12-19T11:53:02.471Z,14.47
2022-12-19T11:55:18.870Z,14.43
2022-12-19T11:57:48.306Z,13.47
2022-12-19T12:00:22.603Z,13.67
2022-12-19T12:03:05.259Z,15.27
2022-12-19T12:05:45.966Z,12.97
2022-12-19T12:10:43.621Z,13.37
2022-12-19T12:19:05.811Z,13.87
2022-12-19T12:23:01.092Z,13.10
2022-12-19T12:30:05.550Z,13.87
2022-12-19T12:31:23.724Z,12.00
2022-12-19T12:31:41.206Z,12.83
2022-12-19T12:31:43.409Z,12.20
2022-12-19T12:31:57.037Z,12.03
2022-12-19T12:35:33.129Z,11.90
2022-12-19T12:38:37.892Z,13.30
2022-12-19T12:41:18.729Z,12.83
2022-12-19T12:44:06.007Z,13.40
2022-12-19T12:46:40.877Z,13.70
2022-12-19T12:49:33.491Z,13.00
2022-12-19T12:52:05.719Z,14.37
2022-12-19T12:54:37.533Z,13.20
2022-12-19T12:57:05.847Z,13.70
2022-12-19T12:59:33.934Z,14.97
2022-12-19T13:02:14.468Z,14.77
2022-12-19T13:04:47.077Z,15.20
2022-12-19T13:07:30.258Z,15.57
2022-12-19T13:10:19.573Z,14.47
2022-12-19T13:13:02.725Z,14.87
2022-12-19T13:15:48.531Z,16.20
2022-12-19T13:18:40.612Z,14.50
2022-12-19T13:21:10.679Z,17.73
2022-12-19T13:24:16.119Z,13.60
2022-12-19T13:26:49.330Z,18.13
2022-12-19T13:29:31.116Z,14.47
2022-12-19T13:32:10.809Z,16.73
2022-12-19T13:34:39.458Z,14.47
2022-12-19T13:39:59.351Z,13.17
2022-12-19T13:40:33.067Z,17.70
2022-12-19T13:43:30.450Z,14.47
2022-12-19T13:46:00.891Z,15.50
2022-12-19T13:48:33.845Z,14.53
2022-12-19T13:51:06.485Z,15.50
2022-12-19T13:53:34.892Z,15.67
2022-12-19T13:56:07.029Z,14.00
2022-12-19T13:58:43.061Z,15.97
2022-12-19T14:01:21.479Z,13.20
2022-12-19T14:03:52.574Z,13.97
2022-12-19T14:06:22.957Z,14.13
2022-12-19T14:09:46.189Z,13.07
2022-12-19T14:12:23.776Z,15.27
2022-12-19T14:14:57.977Z,13.60
2022-12-19T14:17:39.714Z,13.23
2022-12-19T14:20:54.317Z,13.77
2022-12-19T14:23:07.761Z,13.90
2022-12-19T14:54:32.372Z,13.00
2022-12-19T14:58:52.800Z,12.47
2022-12-19T15:01:07.828Z,12.87
2022-12-19T15:17:05.650Z,12.23
2022-12-19T15:19:33.857Z,12.70
2022-12-19T15:38:08.298Z,10.10
2022-12-19T15:40:36.254Z,10.87
2022-12-19T15:43:05.446Z,14.70
2022-12-19T15:45:34.343Z,15.70
2022-12-19T15:48:02.363Z,10.80
2022-12-19T15:50:32.274Z,11.27
2022-12-19T15:53:03.356Z,10.47
2022-12-19T15:55:32.770Z,11.33
2022-12-19T16:14:07.344Z,9.40
2022-12-19T16:19:25.150Z,9.20
2022-12-19T16:21:54.398Z,9.53
2022-12-19T16:24:23.459Z,8.53
2022-12-19T16:26:55.394Z,9.47
2022-12-19T16:29:27.720Z,8.53
2022-12-19T16:31:57.552Z,9.47
2022-12-19T16:34:26.614Z,9.13
2022-12-19T16:36:54.866Z,9.00
2022-12-19T16:39:23.255Z,8.87
2022-12-19T16:41:51.804Z,8.97
2022-12-19T16:44:21.961Z,8.50
2022-12-19T16:46:52.761Z,9.30
2022-12-19T16:49:23.708Z,10.60
2022-12-19T16:51:53.004Z,9.50
2022-12-19T16:54:21.187Z,10.00
2022-12-19T16:56:51.248Z,8.57
2022-12-19T16:59:22.120Z,9.70
2022-12-19T17:01:52.337Z,9.27
2022-12-19T17:04:22.954Z,8.63
2022-12-19T17:06:52.838Z,8.20
2022-12-19T17:09:23.376Z,8.77
2022-12-19T17:11:53.945Z,8.23
2022-12-19T17:14:24.585Z,13.30
2022-12-19T17:16:58.437Z,7.53
2022-12-19T17:19:33.646Z,8.77
2022-12-19T17:22:01.799Z,8.13
2022-12-19T17:24:29.971Z,9.00
2022-12-19T17:26:58.177Z,12.30
2022-12-19T17:29:26.422Z,9.23
2022-12-19T17:31:56.056Z,10.30
2022-12-19T17:34:29.855Z,13.87
2022-12-19T17:36:59.906Z,8.23
2022-12-19T17:39:33.868Z,9.37
2022-12-19T17:42:11.654Z,10.57
2022-12-19T17:44:40.506Z,8.90
2022-12-19T17:47:14.209Z,8.83
2022-12-19T17:49:42.978Z,8.33
2022-12-19T17:52:15.300Z,8.30
2022-12-19T18:00:17.242Z,7.27
2022-12-19T18:06:13.592Z,8.97
2022-12-19T18:08:44.769Z,10.53
2022-12-19T18:11:19.795Z,8.40
2022-12-19T18:13:48.910Z,8.77
2022-12-19T18:16:19.047Z,7.63
2022-12-19T18:18:48.600Z,7.73
2022-12-19T18:21:20.862Z,7.00
2022-12-19T18:29:06.095Z,7.00
2022-12-19T18:31:36.212Z,7.60
2022-12-19T18:52:29.553Z,7.43
2022-12-19T18:54:58.229Z,6.77
2022-12-19T19:02:54.391Z,7.50
2022-12-19T19:17:07.303Z,6.10
2022-12-19T19:19:49.682Z,5.93
2022-12-19T19:27:50.342Z,8.73
2022-12-19T19:30:20.280Z,7.07
2022-12-19T19:33:10.981Z,6.37
2022-12-19T19:35:40.000Z,5.87
2022-12-19T19:47:45.401Z,6.00
2022-12-19T19:58:46.342Z,6.53
2022-12-19T20:01:16.046Z,5.97
2022-12-19T20:17:34.326Z,7.00
2022-12-19T20:20:16.386Z,10.47
2022-12-19T20:25:32.048Z,7.13
2022-12-19T20:28:00.628Z,6.43
2022-12-19T20:30:29.542Z,8.97
2022-12-19T20:32:58.512Z,6.40
2022-12-19T20:35:29.861Z,5.73
2022-12-19T20:38:00.507Z,7.30
2022-12-19T20:43:05.410Z,6.10
2022-12-19T20:45:35.597Z,5.60
2022-12-19T20:48:04.849Z,6.07
2022-12-19T20:50:38.143Z,6.53
2022-12-19T20:53:11.273Z,5.87
2022-12-19T20:55:43.809Z,6.17
2022-12-19T20:58:12.671Z,5.73
2022-12-19T21:00:41.016Z,5.83
2022-12-19T21:05:59.704Z,5.27
2022-12-19T21:08:32.950Z,5.83
2022-12-19T21:11:02.007Z,6.10
2022-12-19T21:13:31.924Z,5.63
2022-12-19T21:18:48.066Z,5.47
2022-12-19T21:21:30.791Z,8.40
2022-12-19T21:24:03.382Z,8.23
2022-12-19T21:26:32.925Z,7.60
2022-12-19T21:29:01.082Z,10.00
2022-12-19T21:31:31.390Z,5.33
2022-12-19T21:34:09.927Z,5.03
2022-12-19T21:36:39.865Z,4.90
2022-12-19T21:39:08.374Z,5.77
2022-12-19T21:41:36.580Z,5.00
2022-12-19T21:44:05.179Z,6.77
2022-12-19T21:46:35.502Z,11.87
2022-12-19T21:49:04.051Z,5.23
2022-12-19T21:51:34.326Z,6.13
2022-12-19T21:54:06.956Z,5.17
2022-12-19T21:56:37.118Z,5.33
2022-12-19T22:01:42.375Z,5.30
2022-12-19T22:04:13.826Z,5.67
2022-12-19T22:06:46.700Z,5.17
2022-12-19T22:11:58.255Z,6.87
2022-12-19T22:14:30.197Z,5.10
2022-12-19T22:16:58.658Z,5.13
2022-12-19T22:22:03.195Z,8.40
2022-12-19T22:24:34.708Z,5.43
2022-12-19T22:27:09.881Z,4.73
2022-12-19T22:29:39.119Z,4.87
2022-12-19T22:34:43.380Z,4.70
2022-12-19T22:37:11.668Z,4.97
2022-12-19T22:50:22.511Z,5.33
2022-12-19T22:52:50.894Z,5.60
2022-12-19T22:57:54.741Z,7.20
2022-12-19T23:00:23.573Z,4.97
2022-12-19T23:02:58.413Z,5.53
2022-12-19T23:05:29.338Z,5.23
2022-12-19T23:08:02.364Z,4.47
2022-12-19T23:10:30.680Z,5.30
2022-12-19T23:12:59.214Z,5.10
2022-12-19T23:15:27.461Z,4.53
2022-12-19T23:20:31.367Z,5.77
2022-12-19T23:22:59.761Z,9.00
2022-12-19T23:25:28.048Z,4.97
2022-12-19T23:27:58.651Z,5.27
2022-12-19T23:30:31.216Z,4.97
2022-12-19T23:33:00.981Z,4.90
2022-12-19T23:35:32.930Z,8.30
2022-12-19T23:38:02.341Z,5.00
2022-12-19T23:40:30.664Z,5.03
2022-12-19T23:42:59.126Z,5.23
2022-12-19T23:45:27.372Z,5.07
2022-12-19T23:47:55.575Z,4.67
2022-12-19T23:50:23.765Z,4.60
2022-12-19T23:52:53.648Z,4.93
2022-12-19T23:55:21.989Z,5.43
2022-12-19T23:57:50.469Z,4.77
